createdAt,value
2018-11-22T00:00:05.755Z,12.60
2018-11-22T00:01:05.750Z,13.30
2018-11-22T00:02:05.781Z,12.10
2018-11-22T00:03:05.731Z,11.50
2018-11-22T00:04:15.639Z,12.60
2018-11-22T00:05:05.704Z,12.70
2018-11-22T00:06:06.494Z,12.20
2018-11-22T00:07:05.714Z,12.50
2018-11-22T00:08:05.699Z,12.30
2018-11-22T00:09:05.665Z,12.80
2018-11-22T00:10:05.646Z,12.30
2018-11-22T00:11:05.634Z,12.10
2018-11-22T00:12:05.618Z,12.80
2018-11-22T00:13:05.672Z,12.80
2018-11-22T00:14:05.624Z,12.20
2018-11-22T00:15:05.591Z,12.90
2018-11-22T00:16:05.581Z,12.80
2018-11-22T00:17:05.615Z,13.30
2018-11-22T00:18:05.574Z,13.10
2018-11-22T00:19:05.540Z,13.70
2018-11-22T00:20:05.530Z,12.50
2018-11-22T00:21:05.519Z,13.10
2018-11-22T00:22:05.537Z,13.50
2018-11-22T00:23:05.538Z,13.40
2018-11-22T00:24:05.493Z,12.90
2018-11-22T00:25:05.477Z,13.20
2018-11-22T00:26:05.487Z,13.00
2018-11-22T00:27:05.481Z,13.30
2018-11-22T00:28:05.451Z,14.20
2018-11-22T00:29:05.431Z,12.80
2018-11-22T00:30:05.448Z,13.60
2018-11-22T00:31:05.479Z,13.50
2018-11-22T00:32:05.397Z,13.20
2018-11-22T00:33:05.407Z,12.90
2018-11-22T00:34:05.390Z,13.80
2018-11-22T00:35:05.380Z,13.00
2018-11-22T00:36:05.385Z,13.40
2018-11-22T00:37:05.349Z,13.70
2018-11-22T00:38:05.335Z,13.90
2018-11-22T00:39:05.355Z,13.70
2018-11-22T00:40:05.332Z,13.30
2018-11-22T00:41:05.308Z,13.30
2018-11-22T00:42:05.308Z,13.70
2018-11-22T00:43:05.284Z,14.00
2018-11-22T00:44:05.267Z,13.20
2018-11-22T00:45:05.276Z,13.20
2018-11-22T00:46:05.431Z,14.00
2018-11-22T00:47:12.809Z,14.60
2018-11-22T00:48:05.253Z,13.90
2018-11-22T00:49:05.214Z,13.50
2018-11-22T00:50:05.210Z,13.70
2018-11-22T00:51:05.235Z,14.00
2018-11-22T00:52:05.189Z,13.60
2018-11-22T00:53:05.169Z,12.90
2018-11-22T00:54:05.164Z,13.20
2018-11-22T00:55:05.176Z,13.90
2018-11-22T00:56:05.138Z,13.00
2018-11-22T00:57:05.161Z,13.40
2018-11-22T00:58:05.127Z,13.60
2018-11-22T00:59:05.103Z,13.60
2018-11-22T01:00:05.097Z,14.60
2018-11-22T01:01:05.083Z,13.40
2018-11-22T01:02:05.100Z,13.70
2018-11-22T01:03:05.087Z,13.30
2018-11-22T01:04:05.054Z,14.00
2018-11-22T01:05:05.045Z,14.50
2018-11-22T01:06:05.043Z,13.70
2018-11-22T01:07:05.023Z,13.00
2018-11-22T01:08:05.038Z,14.20
2018-11-22T01:09:04.993Z,14.50
2018-11-22T01:10:04.995Z,14.10
2018-11-22T01:11:04.975Z,13.30
2018-11-22T01:12:04.975Z,13.50
2018-11-22T01:13:04.954Z,13.90
2018-11-22T01:14:04.967Z,13.90
2018-11-22T01:15:04.934Z,14.80
2018-11-22T01:16:04.923Z,14.60
2018-11-22T01:17:04.914Z,13.90
2018-11-22T01:18:04.931Z,14.20
2018-11-22T01:19:04.904Z,14.20
2018-11-22T01:20:04.876Z,14.10
2018-11-22T01:21:04.871Z,14.40
2018-11-22T01:22:04.858Z,14.00
2018-11-22T01:23:04.848Z,14.20
2018-11-22T01:24:04.870Z,15.00
2018-11-22T01:25:04.889Z,14.50
2018-11-22T01:26:04.812Z,15.00
2018-11-22T01:27:04.806Z,14.50
2018-11-22T01:28:04.787Z,14.60
2018-11-22T01:29:04.805Z,14.30
2018-11-22T01:30:04.768Z,15.00
2018-11-22T01:31:04.769Z,14.30
2018-11-22T01:32:04.751Z,14.80
2018-11-22T01:33:04.730Z,14.90
2018-11-22T01:34:04.755Z,15.00
2018-11-22T01:35:04.767Z,15.30
2018-11-22T01:36:04.707Z,14.80
2018-11-22T01:37:04.689Z,14.80
2018-11-22T01:38:04.681Z,14.80
2018-11-22T01:39:04.678Z,15.10
2018-11-22T01:40:04.676Z,14.70
2018-11-22T01:41:04.649Z,14.80
2018-11-22T01:42:04.633Z,15.60
2018-11-22T01:43:04.628Z,15.50
2018-11-22T01:44:04.614Z,14.90
2018-11-22T01:45:04.642Z,15.00
2018-11-22T01:46:04.592Z,14.90
2018-11-22T01:47:04.586Z,15.30
2018-11-22T01:48:04.589Z,15.10
2018-11-22T01:49:04.562Z,15.40
2018-11-22T01:50:04.556Z,14.90
2018-11-22T01:51:04.580Z,14.40
2018-11-22T01:52:04.524Z,15.00
2018-11-22T01:53:04.518Z,15.10
2018-11-22T01:54:04.517Z,15.20
2018-11-22T01:55:04.490Z,15.80
2018-11-22T01:56:04.504Z,14.40
2018-11-22T01:57:04.521Z,14.70
2018-11-22T01:58:04.464Z,15.40
2018-11-22T01:59:04.454Z,15.60
2018-11-22T02:00:04.447Z,15.40
2018-11-22T02:01:04.454Z,16.30
2018-11-22T02:02:04.427Z,14.90
2018-11-22T02:03:04.427Z,15.70
2018-11-22T02:04:04.394Z,15.30
2018-11-22T02:05:04.391Z,16.10
2018-11-22T02:06:04.400Z,16.20
2018-11-22T02:07:04.364Z,15.60
2018-11-22T02:08:12.932Z,16.80
2018-11-22T02:09:04.340Z,17.70
2018-11-22T02:10:11.871Z,16.80
2018-11-22T02:11:13.119Z,17.60
2018-11-22T02:12:12.925Z,16.90
2018-11-22T02:13:11.856Z,17.40
2018-11-22T02:14:11.841Z,18.50
2018-11-22T02:15:04.275Z,17.60
2018-11-22T02:16:13.257Z,18.10
2018-11-22T02:17:04.253Z,19.00
2018-11-22T02:18:04.244Z,19.00
2018-11-22T02:19:12.790Z,19.60
2018-11-22T02:20:12.801Z,20.00
2018-11-22T02:21:12.853Z,19.30
2018-11-22T02:22:11.741Z,20.00
2018-11-22T02:23:12.764Z,20.00
2018-11-22T02:24:04.180Z,20.30
2018-11-22T02:25:04.241Z,20.40
2018-11-22T02:26:04.165Z,19.70
2018-11-22T02:27:04.150Z,19.10
2018-11-22T02:28:04.145Z,20.20
2018-11-22T02:29:04.125Z,20.70
2018-11-22T02:30:04.124Z,20.90
2018-11-22T02:31:04.144Z,21.00
2018-11-22T02:32:04.095Z,20.20
2018-11-22T02:33:04.090Z,19.80
2018-11-22T02:34:04.152Z,20.90
2018-11-22T02:35:04.060Z,21.60
2018-11-22T02:36:04.067Z,20.50
2018-11-22T02:37:04.044Z,21.60
2018-11-22T02:38:04.030Z,20.50
2018-11-22T02:39:04.034Z,19.90
2018-11-22T02:40:04.039Z,20.90
2018-11-22T02:41:04.020Z,20.70
2018-11-22T02:42:03.992Z,20.60
2018-11-22T02:43:03.977Z,19.80
2018-11-22T02:44:03.962Z,20.60
2018-11-22T02:45:03.948Z,21.20
2018-11-22T02:46:03.976Z,21.50
2018-11-22T02:47:03.952Z,21.10
2018-11-22T02:48:03.929Z,20.30
2018-11-22T02:49:03.930Z,19.90
2018-11-22T02:50:03.893Z,20.80
2018-11-22T02:51:03.884Z,20.70
2018-11-22T02:52:03.904Z,21.40
2018-11-22T02:53:03.863Z,20.60
2018-11-22T02:54:03.850Z,20.40
2018-11-22T02:55:03.845Z,21.40
2018-11-22T02:56:03.842Z,20.60
2018-11-22T02:57:03.848Z,21.40
2018-11-22T02:58:03.815Z,22.90
2018-11-22T02:59:03.800Z,21.30
2018-11-22T03:00:03.790Z,22.30
2018-11-22T03:01:03.776Z,21.60
2018-11-22T03:02:03.795Z,22.10
2018-11-22T03:03:03.773Z,22.20
2018-11-22T03:04:03.747Z,21.40
2018-11-22T03:05:12.303Z,21.70
2018-11-22T03:06:11.277Z,22.20
2018-11-22T03:07:11.441Z,22.50
2018-11-22T03:08:12.569Z,22.40
2018-11-22T03:09:11.244Z,22.50
2018-11-22T03:10:12.494Z,24.00
2018-11-22T03:11:12.215Z,22.90
2018-11-22T03:12:03.658Z,23.00
2018-11-22T03:13:03.666Z,23.00
2018-11-22T03:14:03.634Z,22.70
2018-11-22T03:15:03.624Z,22.20
2018-11-22T03:16:03.615Z,22.00
2018-11-22T03:17:03.633Z,22.70
2018-11-22T03:18:03.621Z,22.50
2018-11-22T03:19:03.600Z,21.40
2018-11-22T03:20:03.576Z,23.10
2018-11-22T03:21:03.580Z,22.90
2018-11-22T03:22:03.551Z,23.60
2018-11-22T03:23:03.560Z,22.20
2018-11-22T03:24:03.537Z,22.00
2018-11-22T03:25:03.519Z,23.10
2018-11-22T03:26:03.517Z,22.20
2018-11-22T03:27:03.499Z,22.70
2018-11-22T03:28:03.532Z,22.30
2018-11-22T03:29:03.477Z,23.10
2018-11-22T03:30:03.466Z,22.80
2018-11-22T03:31:03.459Z,22.10
2018-11-22T03:32:03.457Z,22.70
2018-11-22T03:33:03.432Z,24.00
2018-11-22T03:34:03.449Z,22.80
2018-11-22T03:35:03.419Z,22.70
2018-11-22T03:36:03.400Z,22.60
2018-11-22T03:37:03.403Z,22.10
2018-11-22T03:38:03.393Z,23.80
2018-11-22T03:39:03.365Z,23.80
2018-11-22T03:40:03.355Z,23.20
2018-11-22T03:41:03.350Z,23.40
2018-11-22T03:42:03.372Z,23.60
2018-11-22T03:43:03.343Z,22.30
2018-11-22T03:44:03.311Z,23.10
2018-11-22T03:45:03.313Z,22.30
2018-11-22T03:46:03.295Z,22.30
2018-11-22T03:47:03.285Z,22.60
2018-11-22T03:48:03.314Z,22.90
2018-11-22T03:49:03.412Z,23.50
2018-11-22T03:50:03.250Z,23.00
2018-11-22T03:51:03.242Z,23.90
2018-11-22T03:52:03.228Z,22.80
2018-11-22T03:53:03.228Z,23.20
2018-11-22T03:54:03.238Z,22.40
2018-11-22T03:55:03.188Z,22.00
2018-11-22T03:56:03.190Z,22.60
2018-11-22T03:57:03.177Z,23.30
2018-11-22T03:58:03.163Z,23.40
2018-11-22T03:59:03.169Z,23.50
2018-11-22T04:00:03.143Z,23.90
2018-11-22T04:01:03.134Z,23.50
2018-11-22T04:02:03.118Z,23.80
2018-11-22T04:03:03.107Z,23.50
2018-11-22T04:04:03.105Z,22.70
2018-11-22T04:05:03.102Z,23.30
2018-11-22T04:06:03.102Z,22.30
2018-11-22T04:07:03.080Z,23.20
2018-11-22T04:08:03.044Z,22.90
2018-11-22T04:09:03.054Z,23.60
2018-11-22T04:10:03.053Z,22.70
2018-11-22T04:11:03.040Z,23.50
2018-11-22T04:12:03.002Z,22.80
2018-11-22T04:13:02.989Z,24.30
2018-11-22T04:14:02.992Z,23.50
2018-11-22T04:15:03.004Z,23.50
2018-11-22T04:16:03.018Z,23.20
2018-11-22T04:17:02.946Z,23.70
2018-11-22T04:18:02.955Z,23.70
2018-11-22T04:19:02.932Z,23.10
2018-11-22T04:20:02.928Z,24.70
2018-11-22T04:21:02.963Z,23.20
2018-11-22T04:22:02.969Z,23.00
2018-11-22T04:23:02.891Z,23.10
2018-11-22T04:24:02.941Z,23.40
2018-11-22T04:25:02.870Z,23.80
2018-11-22T04:26:02.873Z,23.90
2018-11-22T04:27:02.842Z,23.60
2018-11-22T04:28:02.836Z,23.00
2018-11-22T04:29:02.851Z,23.70
2018-11-22T04:30:02.820Z,22.80
2018-11-22T04:31:02.825Z,23.50
2018-11-22T04:32:02.805Z,23.60
2018-11-22T04:33:02.780Z,24.10
2018-11-22T04:34:02.777Z,24.10
2018-11-22T04:35:02.756Z,22.90
2018-11-22T04:36:02.767Z,23.90
2018-11-22T04:37:02.734Z,23.10
2018-11-22T04:38:02.762Z,24.40
2018-11-22T04:39:02.729Z,23.30
2018-11-22T04:40:02.727Z,23.50
2018-11-22T04:41:02.711Z,23.70
2018-11-22T04:42:02.682Z,23.80
2018-11-22T04:43:02.669Z,23.90
2018-11-22T04:44:02.662Z,23.30
2018-11-22T04:45:02.655Z,23.80
2018-11-22T04:46:02.678Z,24.10
2018-11-22T04:47:02.660Z,23.90
2018-11-22T04:48:02.626Z,22.90
2018-11-22T04:49:02.598Z,23.10
2018-11-22T04:50:02.624Z,23.90
2018-11-22T04:51:02.606Z,22.90
2018-11-22T04:52:02.585Z,22.70
2018-11-22T04:53:02.568Z,23.80
2018-11-22T04:54:02.544Z,24.00
2018-11-22T04:55:02.577Z,23.90
2018-11-22T04:56:02.561Z,23.00
2018-11-22T04:57:02.517Z,23.10
2018-11-22T04:58:02.517Z,22.90
2018-11-22T04:59:02.495Z,23.40
2018-11-22T05:00:02.484Z,22.70
2018-11-22T05:01:02.484Z,23.30
2018-11-22T05:02:02.478Z,23.30
2018-11-22T05:03:02.469Z,24.30
2018-11-22T05:04:02.440Z,24.70
2018-11-22T05:05:02.424Z,24.90
2018-11-22T05:06:02.422Z,23.20
2018-11-22T05:07:02.442Z,24.60
2018-11-22T05:08:02.392Z,23.90
2018-11-22T05:09:02.430Z,25.00
2018-11-22T05:10:02.370Z,22.90
2018-11-22T05:11:02.359Z,25.30
2018-11-22T05:12:02.371Z,23.70
2018-11-22T05:13:02.365Z,24.30
2018-11-22T05:14:02.380Z,22.90
2018-11-22T05:15:02.311Z,24.30
2018-11-22T05:16:02.360Z,24.20
2018-11-22T05:17:02.323Z,23.40
2018-11-22T05:18:02.303Z,24.00
2018-11-22T05:19:02.282Z,24.60
2018-11-22T05:20:02.257Z,23.70
2018-11-22T05:21:02.268Z,23.80
2018-11-22T05:22:02.234Z,24.00
2018-11-22T05:23:02.251Z,23.80
2018-11-22T05:24:02.231Z,24.20
2018-11-22T05:25:02.204Z,23.40
2018-11-22T05:26:02.203Z,24.90
2018-11-22T05:27:02.186Z,23.50
2018-11-22T05:28:02.220Z,23.00
2018-11-22T05:29:02.174Z,23.30
2018-11-22T05:30:02.148Z,23.90
2018-11-22T05:31:02.150Z,24.70
2018-11-22T05:32:02.153Z,24.00
2018-11-22T05:33:02.147Z,24.00
2018-11-22T05:34:02.125Z,22.30
2018-11-22T05:35:02.101Z,23.60
2018-11-22T05:36:02.085Z,24.10
2018-11-22T05:37:02.100Z,23.90
2018-11-22T05:38:02.072Z,24.10
2018-11-22T05:39:02.080Z,24.00
2018-11-22T05:40:02.040Z,23.20
2018-11-22T05:41:02.069Z,24.80
2018-11-22T05:42:02.027Z,23.40
2018-11-22T05:43:02.021Z,24.10
2018-11-22T05:44:02.021Z,25.30
2018-11-22T05:45:01.992Z,23.30
2018-11-22T05:46:01.986Z,23.60
2018-11-22T05:47:02.707Z,24.10
2018-11-22T05:48:01.976Z,24.50
2018-11-22T05:49:01.949Z,24.30
2018-11-22T05:50:01.959Z,24.80
2018-11-22T05:51:01.939Z,24.40
2018-11-22T05:52:01.914Z,24.70
2018-11-22T05:53:01.909Z,23.30
2018-11-22T05:54:01.892Z,24.00
2018-11-22T05:55:01.933Z,24.10
2018-11-22T05:56:01.886Z,23.30
2018-11-22T05:57:01.862Z,23.70
2018-11-22T05:58:01.849Z,23.90
2018-11-22T05:59:01.899Z,24.80
2018-11-22T06:00:01.874Z,23.70
2018-11-22T06:01:01.843Z,23.60
2018-11-22T06:02:01.808Z,24.20
2018-11-22T06:03:01.839Z,23.20
2018-11-22T06:04:01.804Z,23.70
2018-11-22T06:05:01.813Z,23.80
2018-11-22T06:06:01.843Z,25.20
2018-11-22T06:07:01.808Z,24.40
2018-11-22T06:08:01.759Z,24.50
2018-11-22T06:09:01.731Z,24.20
2018-11-22T06:10:01.742Z,24.30
2018-11-22T06:11:01.721Z,24.40
2018-11-22T06:12:01.738Z,23.80
2018-11-22T06:13:01.695Z,24.20
2018-11-22T06:14:01.683Z,23.00
2018-11-22T06:15:01.678Z,23.30
2018-11-22T06:16:01.684Z,24.10
2018-11-22T06:17:01.672Z,23.50
2018-11-22T06:18:01.637Z,23.30
2018-11-22T06:19:01.625Z,23.90
2018-11-22T06:20:01.695Z,23.30
2018-11-22T06:21:09.164Z,24.70
2018-11-22T06:22:01.594Z,25.00
2018-11-22T06:23:01.638Z,23.70
2018-11-22T06:24:01.579Z,24.50
2018-11-22T06:25:03.763Z,23.30
2018-11-22T06:26:01.669Z,23.60
2018-11-22T06:27:01.568Z,25.50
2018-11-22T06:29:18.775Z,21.80
2018-11-22T06:30:18.737Z,23.40
2018-11-22T06:31:18.720Z,24.20
2018-11-22T06:32:26.275Z,25.00
2018-11-22T06:34:42.612Z,21.60
2018-11-22T06:35:52.166Z,24.90
2018-11-22T06:36:51.153Z,25.20
2018-11-22T06:37:50.096Z,24.90
2018-11-22T06:40:20.588Z,22.80
2018-11-22T06:41:20.667Z,24.40
2018-11-22T06:42:20.663Z,24.20
2018-11-22T06:43:28.164Z,25.80
2018-11-22T06:44:28.179Z,25.60
2018-11-22T06:45:29.610Z,24.90
2018-11-22T06:46:28.138Z,24.80
2018-11-22T06:47:20.596Z,26.10
2018-11-22T06:48:20.568Z,24.90
2018-11-22T06:49:20.484Z,25.00
2018-11-22T06:50:20.575Z,25.20
2018-11-22T06:51:20.467Z,24.60
2018-11-22T06:52:20.454Z,23.80
2018-11-22T06:53:28.145Z,24.30
2018-11-22T06:54:29.064Z,24.90
2018-11-22T06:55:29.227Z,25.60
2018-11-22T06:56:20.470Z,24.50
2018-11-22T06:57:28.103Z,23.30
2018-11-22T06:58:20.437Z,24.80
2018-11-22T06:59:20.402Z,24.80
2018-11-22T07:00:20.478Z,24.50
2018-11-22T07:03:10.767Z,21.70
2018-11-22T07:04:10.713Z,24.30
2018-11-22T07:05:10.692Z,24.50
2018-11-22T07:06:10.659Z,23.50
2018-11-22T07:07:10.628Z,24.30
2018-11-22T07:08:10.649Z,24.10
2018-11-22T07:09:10.706Z,24.20
2018-11-22T07:11:20.919Z,22.30
2018-11-22T07:12:29.383Z,23.90
2018-11-22T07:13:20.851Z,24.60
2018-11-22T07:14:20.819Z,25.00
2018-11-22T07:15:20.893Z,25.10
2018-11-22T07:16:20.868Z,24.20
2018-11-22T07:17:20.772Z,24.80
2018-11-22T07:18:20.780Z,25.50
2018-11-22T07:19:20.781Z,24.50
2018-11-22T07:20:28.322Z,23.90
2018-11-22T07:21:20.727Z,25.20
2018-11-22T07:22:20.836Z,24.20
2018-11-22T07:23:28.311Z,24.40
2018-11-22T07:24:20.706Z,25.70
2018-11-22T07:25:20.729Z,24.40
2018-11-22T07:26:20.735Z,23.50
2018-11-22T07:27:20.677Z,23.10
2018-11-22T07:28:20.711Z,24.80
2018-11-22T07:29:20.685Z,25.00
2018-11-22T07:30:29.211Z,24.00
2018-11-22T07:31:20.672Z,25.90
2018-11-22T07:32:20.623Z,24.80
2018-11-22T07:33:20.683Z,24.70
2018-11-22T07:34:20.605Z,24.70
2018-11-22T07:35:20.600Z,24.30
2018-11-22T07:36:20.585Z,23.90
2018-11-22T07:37:20.543Z,25.00
2018-11-22T07:38:20.628Z,25.10
2018-11-22T07:39:20.521Z,23.50
2018-11-22T07:40:20.576Z,24.20
2018-11-22T07:41:20.515Z,24.50
2018-11-22T07:42:20.500Z,24.80
2018-11-22T07:43:20.541Z,24.40
2018-11-22T07:44:20.481Z,24.00
2018-11-22T07:45:20.461Z,24.30
2018-11-22T07:46:20.500Z,23.90
2018-11-22T07:47:20.458Z,25.50
2018-11-22T07:48:20.538Z,25.80
2018-11-22T07:49:20.467Z,24.80
2018-11-22T07:50:20.415Z,24.50
2018-11-22T07:51:20.397Z,24.90
2018-11-22T07:52:20.388Z,25.10
2018-11-22T07:53:20.545Z,24.20
2018-11-22T07:54:20.409Z,24.30
2018-11-22T07:55:20.370Z,24.60
2018-11-22T07:56:20.346Z,24.80
2018-11-22T07:57:20.335Z,24.60
2018-11-22T07:58:20.344Z,25.10
2018-11-22T07:59:20.338Z,25.20
2018-11-22T08:00:30.152Z,25.10
2018-11-22T08:01:20.330Z,24.80
2018-11-22T08:02:20.347Z,26.00
2018-11-22T08:03:20.327Z,24.60
2018-11-22T08:04:20.332Z,24.60
2018-11-22T08:05:20.295Z,25.20
2018-11-22T08:06:27.878Z,24.10
2018-11-22T08:07:20.398Z,25.70
2018-11-22T08:08:20.253Z,24.90
2018-11-22T08:09:20.212Z,24.50
2018-11-22T08:10:20.216Z,25.40
2018-11-22T08:11:20.277Z,24.00
2018-11-22T08:12:25.814Z,25.90
2018-11-22T08:13:20.210Z,24.80
2018-11-22T08:14:20.199Z,24.90
2018-11-22T08:15:20.147Z,25.10
2018-11-22T08:16:20.218Z,24.60
2018-11-22T08:17:20.146Z,23.80
2018-11-22T08:18:20.112Z,24.30
2018-11-22T08:19:28.855Z,25.50
2018-11-22T08:20:20.093Z,25.00
2018-11-22T08:21:20.152Z,24.70
2018-11-22T08:22:20.101Z,24.40
2018-11-22T08:23:20.089Z,25.50
2018-11-22T08:24:20.120Z,24.40
2018-11-22T08:25:20.076Z,24.50
2018-11-22T08:26:20.023Z,24.60
2018-11-22T08:27:20.011Z,24.40
2018-11-22T08:28:20.004Z,25.90
2018-11-22T08:29:20.005Z,25.40
2018-11-22T08:30:20.002Z,24.40
2018-11-22T08:31:19.986Z,24.90
2018-11-22T08:32:19.959Z,25.00
2018-11-22T08:33:19.947Z,25.00
2018-11-22T08:34:19.940Z,24.60
2018-11-22T08:35:19.944Z,25.90
2018-11-22T08:36:19.914Z,25.70
2018-11-22T08:37:19.937Z,24.50
2018-11-22T08:38:19.896Z,24.30
2018-11-22T08:39:19.889Z,25.90
2018-11-22T08:40:19.915Z,25.50
2018-11-22T08:41:19.860Z,25.40
2018-11-22T08:42:19.858Z,24.90
2018-11-22T08:43:19.871Z,23.80
2018-11-22T08:44:19.829Z,24.80
2018-11-22T08:45:19.817Z,25.10
2018-11-22T08:46:19.825Z,25.00
2018-11-22T08:47:19.794Z,25.20
2018-11-22T08:48:19.784Z,24.60
2018-11-22T08:49:19.774Z,24.90
2018-11-22T08:50:19.770Z,25.00
2018-11-22T08:51:19.771Z,24.00
2018-11-22T08:52:19.751Z,25.00
2018-11-22T08:53:19.732Z,25.30
2018-11-22T08:54:19.721Z,26.60
2018-11-22T08:55:19.711Z,24.80
2018-11-22T08:56:19.717Z,25.00
2018-11-22T08:57:19.694Z,25.20
2018-11-22T08:58:19.677Z,24.50
2018-11-22T08:59:19.665Z,25.10
2018-11-22T09:00:19.658Z,24.10
2018-11-22T09:01:19.669Z,25.80
2018-11-22T09:02:19.630Z,25.30
2018-11-22T09:03:19.641Z,25.20
2018-11-22T09:04:19.610Z,24.20
2018-11-22T09:05:19.604Z,25.80
2018-11-22T09:06:19.587Z,24.90
2018-11-22T09:07:19.596Z,24.20
2018-11-22T09:08:19.566Z,23.80
2018-11-22T09:09:19.556Z,25.00
2018-11-22T09:10:19.540Z,25.30
2018-11-22T09:11:19.534Z,23.90
2018-11-22T09:12:19.543Z,24.70
2018-11-22T09:13:19.512Z,24.70
2018-11-22T09:14:19.497Z,23.80
2018-11-22T09:15:19.496Z,23.60
2018-11-22T09:16:19.473Z,23.20
2018-11-22T09:17:19.483Z,24.20
2018-11-22T09:18:19.453Z,23.20
2018-11-22T09:19:19.441Z,24.80
2018-11-22T09:20:19.432Z,24.50
2018-11-22T09:21:19.428Z,22.80
2018-11-22T09:22:19.429Z,22.60
2018-11-22T09:23:19.400Z,23.20
2018-11-22T09:24:24.108Z,22.10
2018-11-22T09:25:20.377Z,21.70
2018-11-22T09:26:26.914Z,24.60
2018-11-22T09:27:19.392Z,22.80
2018-11-22T09:28:19.345Z,22.90
2018-11-22T09:29:19.347Z,23.30
2018-11-22T09:30:19.319Z,23.60
2018-11-22T09:31:19.308Z,22.60
2018-11-22T09:32:19.311Z,23.10
2018-11-22T09:33:19.303Z,23.50
2018-11-22T09:34:19.276Z,23.00
2018-11-22T09:35:19.326Z,22.40
2018-11-22T09:36:19.252Z,22.70
2018-11-22T09:37:19.244Z,21.30
2018-11-22T09:38:19.288Z,22.30
2018-11-22T09:39:19.217Z,23.10
2018-11-22T09:40:19.212Z,21.50
2018-11-22T09:41:19.203Z,21.10
2018-11-22T09:42:19.314Z,21.80
2018-11-22T09:43:19.190Z,22.50
2018-11-22T09:44:19.203Z,22.00
2018-11-22T09:45:19.158Z,22.20
2018-11-22T09:46:19.151Z,21.90
2018-11-22T09:47:19.133Z,23.20
2018-11-22T09:48:19.138Z,22.50
2018-11-22T09:49:19.112Z,23.30
2018-11-22T09:50:19.108Z,23.00
2018-11-22T09:51:19.090Z,22.20
2018-11-22T09:52:19.084Z,22.20
2018-11-22T09:53:27.982Z,23.00
2018-11-22T09:54:26.689Z,21.80
2018-11-22T09:55:27.944Z,23.50
2018-11-22T09:56:26.591Z,22.30
2018-11-22T09:57:26.721Z,23.60
2018-11-22T09:58:19.027Z,23.30
2018-11-22T09:59:28.541Z,22.50
2018-11-22T10:00:18.991Z,22.90
2018-11-22T10:01:18.981Z,22.70
2018-11-22T10:02:18.974Z,22.30
2018-11-22T10:03:18.970Z,21.50
2018-11-22T10:04:18.971Z,23.00
2018-11-22T10:05:19.043Z,23.00
2018-11-22T10:06:18.932Z,21.50
2018-11-22T10:07:18.919Z,22.20
2018-11-22T10:08:18.911Z,22.60
2018-11-22T10:09:18.996Z,21.00
2018-11-22T10:10:18.881Z,21.80
2018-11-22T10:11:18.868Z,21.30
2018-11-22T10:12:18.910Z,21.20
2018-11-22T10:13:18.850Z,22.00
2018-11-22T10:14:18.860Z,21.40
2018-11-22T10:15:18.829Z,21.80
2018-11-22T10:16:18.851Z,20.70
2018-11-22T10:17:18.805Z,21.80
2018-11-22T10:18:18.803Z,22.20
2018-11-22T10:19:18.791Z,22.60
2018-11-22T10:20:18.791Z,22.10
2018-11-22T10:21:18.762Z,21.70
2018-11-22T10:22:26.390Z,20.90
2018-11-22T10:23:18.746Z,22.30
2018-11-22T10:24:18.755Z,21.50
2018-11-22T10:25:18.749Z,20.70
2018-11-22T10:26:18.712Z,20.70
2018-11-22T10:27:18.727Z,20.70
2018-11-22T10:28:18.692Z,21.70
2018-11-22T10:29:26.281Z,21.30
2018-11-22T10:30:18.739Z,22.30
2018-11-22T10:31:18.652Z,21.50
2018-11-22T10:32:18.659Z,22.10
2018-11-22T10:33:18.636Z,22.30
2018-11-22T10:34:18.620Z,20.90
2018-11-22T10:35:18.675Z,19.30
2018-11-22T10:36:18.602Z,21.40
2018-11-22T10:37:18.596Z,20.40
2018-11-22T10:38:18.583Z,20.00
2018-11-22T10:39:48.718Z,20.10
2018-11-22T10:40:48.720Z,20.40
2018-11-22T10:41:48.697Z,21.50
2018-11-22T10:42:48.686Z,21.20
2018-11-22T10:43:48.673Z,22.00
2018-11-22T10:44:48.678Z,21.30
2018-11-22T10:45:48.672Z,20.40
2018-11-22T10:46:48.643Z,21.80
2018-11-22T10:47:48.637Z,20.50
2018-11-22T10:48:48.624Z,20.40
2018-11-22T10:49:56.157Z,20.40
2018-11-22T10:50:48.620Z,20.90
2018-11-22T10:51:48.590Z,20.30
2018-11-22T10:52:48.597Z,20.50
2018-11-22T10:53:48.566Z,20.50
2018-11-22T10:54:48.559Z,20.10
2018-11-22T10:55:48.585Z,19.90
2018-11-22T10:56:48.537Z,20.30
2018-11-22T10:57:53.832Z,20.70
2018-11-22T10:58:49.511Z,19.50
2018-11-22T10:59:48.506Z,20.90
2018-11-22T11:00:48.573Z,21.10
2018-11-22T11:01:48.514Z,19.40
2018-11-22T11:02:48.471Z,19.90
2018-11-22T11:03:48.460Z,19.60
2018-11-22T11:04:48.455Z,19.50
2018-11-22T11:05:48.470Z,18.50
2018-11-22T11:06:48.435Z,17.50
2018-11-22T11:07:48.437Z,18.60
2018-11-22T11:08:48.410Z,17.20
2018-11-22T11:09:48.417Z,18.80
2018-11-22T11:10:48.387Z,18.00
2018-11-22T11:11:48.396Z,19.10
2018-11-22T11:12:48.365Z,17.70
2018-11-22T11:13:48.360Z,20.20
2018-11-22T11:14:48.348Z,18.60
2018-11-22T11:15:48.334Z,18.80
2018-11-22T11:16:48.343Z,18.00
2018-11-22T11:17:48.317Z,18.40
2018-11-22T11:18:48.303Z,18.90
2018-11-22T11:19:48.322Z,18.70
2018-11-22T11:20:48.322Z,18.10
2018-11-22T11:21:48.311Z,17.50
2018-11-22T11:22:48.257Z,17.20
2018-11-22T11:23:48.247Z,18.50
2018-11-22T11:24:48.238Z,18.50
2018-11-22T11:25:48.239Z,18.10
2018-11-22T11:26:48.216Z,18.90
2018-11-22T11:27:48.225Z,19.00
2018-11-22T11:28:48.200Z,18.20
2018-11-22T11:29:48.185Z,18.10
2018-11-22T11:30:48.176Z,18.50
2018-11-22T11:31:48.197Z,17.70
2018-11-22T11:32:48.177Z,17.30
2018-11-22T11:33:48.139Z,17.30
2018-11-22T11:34:48.135Z,17.80
2018-11-22T11:35:48.121Z,18.20
2018-11-22T11:36:48.110Z,18.10
2018-11-22T11:37:48.120Z,18.80
2018-11-22T11:38:48.094Z,17.70
2018-11-22T11:39:48.084Z,17.60
2018-11-22T11:40:48.079Z,17.50
2018-11-22T11:41:48.056Z,18.60
2018-11-22T11:42:48.062Z,19.00
2018-11-22T11:43:48.054Z,18.10
2018-11-22T11:44:48.022Z,17.90
2018-11-22T11:45:48.012Z,18.60
2018-11-22T11:46:48.013Z,18.40
2018-11-22T11:47:48.043Z,19.10
2018-11-22T11:48:47.983Z,19.30
2018-11-22T11:49:47.969Z,16.60
2018-11-22T11:50:47.957Z,18.00
2018-11-22T11:51:47.953Z,17.60
2018-11-22T11:52:47.963Z,18.50
2018-11-22T11:53:47.935Z,18.10
2018-11-22T11:54:47.917Z,18.20
2018-11-22T11:55:47.902Z,17.70
2018-11-22T11:56:47.896Z,18.20
2018-11-22T11:57:47.911Z,18.50
2018-11-22T11:58:47.876Z,18.30
2018-11-22T11:59:47.885Z,19.10
2018-11-22T12:00:47.855Z,17.50
2018-11-22T12:01:47.839Z,18.20
2018-11-22T12:02:47.849Z,18.40
2018-11-22T12:03:47.820Z,17.60
2018-11-22T12:04:47.807Z,18.50
2018-11-22T12:05:47.847Z,18.10
2018-11-22T12:06:47.789Z,17.70
2018-11-22T12:07:47.821Z,18.50
2018-11-22T12:08:47.773Z,17.90
2018-11-22T12:09:47.759Z,17.90
2018-11-22T12:10:47.748Z,18.60
2018-11-22T12:11:47.744Z,17.70
2018-11-22T12:12:47.727Z,19.90
2018-11-22T12:13:47.735Z,17.90
2018-11-22T12:14:47.703Z,18.80
2018-11-22T12:16:17.970Z,17.00
2018-11-22T12:17:25.559Z,17.80
2018-11-22T12:18:25.504Z,18.20
2018-11-22T12:19:25.471Z,17.80
2018-11-22T12:20:25.478Z,18.00
2018-11-22T12:21:25.462Z,17.50
2018-11-22T12:22:25.488Z,17.30
2018-11-22T12:23:26.998Z,18.00
2018-11-22T12:24:25.460Z,17.50
2018-11-22T12:25:26.445Z,17.60
2018-11-22T12:26:25.397Z,18.90
2018-11-22T12:27:25.405Z,17.40
2018-11-22T12:28:27.719Z,17.90
2018-11-22T12:29:25.364Z,17.40
2018-11-22T12:30:25.385Z,17.40
2018-11-22T12:31:26.661Z,18.00
2018-11-22T12:32:26.608Z,17.40
2018-11-22T12:33:25.320Z,17.50
2018-11-22T12:34:17.787Z,17.30
2018-11-22T12:35:17.758Z,17.90
2018-11-22T12:36:17.778Z,17.90
2018-11-22T12:37:17.736Z,18.20
2018-11-22T12:38:17.738Z,18.10
2018-11-22T12:39:17.744Z,17.60
2018-11-22T12:40:17.744Z,18.50
2018-11-22T12:41:17.689Z,19.80
2018-11-22T12:42:17.680Z,19.00
2018-11-22T12:43:18.515Z,18.10
2018-11-22T12:44:19.466Z,18.40
2018-11-22T12:45:17.646Z,18.80
2018-11-22T12:46:17.664Z,19.50
2018-11-22T12:47:17.654Z,18.90
2018-11-22T12:48:17.619Z,20.40
2018-11-22T12:49:17.603Z,20.30
2018-11-22T12:50:17.635Z,18.60
2018-11-22T12:51:17.581Z,17.70
2018-11-22T12:52:17.576Z,18.80
2018-11-22T12:53:17.564Z,18.30
2018-11-22T12:54:17.587Z,18.70
2018-11-22T12:55:17.562Z,19.10
2018-11-22T12:56:17.530Z,18.60
2018-11-22T12:57:17.540Z,18.40
2018-11-22T12:58:17.511Z,19.10
2018-11-22T12:59:17.534Z,19.10
2018-11-22T13:00:17.516Z,18.50